sensor_id;sensor_type;location;lat;lon;timestamp;temperature;humidity
9448;DHT22;4762;48.128;11.376;2023-04-24T00:00:04;9.10;99.90
9448;DHT22;4762;48.128;11.376;2023-04-24T00:02:08;9.20;99.90
9448;DHT22;4762;48.128;11.376;2023-04-24T00:04:11;9.10;99.90
9448;DHT22;4762;48.128;11.376;2023-04-24T00:06:14;9.20;99.90
9448;DHT22;4762;48.128;11.376;2023-04-24T00:08:16;9.20;99.90
9448;DHT22;4762;48.128;11.376;2023-04-24T00:10:18;9.20;99.90
9448;DHT22;4762;48.128;11.376;2023-04-24T00:12:21;9.10;99.90
9448;DHT22;4762;48.128;11.376;2023-04-24T00:14:23;9.10;99.90
9448;DHT22;4762;48.128;11.376;2023-04-24T00:16:25;9.10;99.90
9448;DHT22;4762;48.128;11.376;2023-04-24T00:18:27;9.10;99.90
9448;DHT22;4762;48.128;11.376;2023-04-24T00:20:30;9.10;99.90
9448;DHT22;4762;48.128;11.376;2023-04-24T00:22:33;9.10;99.90
9448;DHT22;4762;48.128;11.376;2023-04-24T00:24:35;9.10;99.90
9448;DHT22;4762;48.128;11.376;2023-04-24T00:26:38;9.10;99.90
9448;DHT22;4762;48.128;11.376;2023-04-24T00:28:40;9.00;99.90
9448;DHT22;4762;48.128;11.376;2023-04-24T00:30:42;8.90;99.90
9448;DHT22;4762;48.128;11.376;2023-04-24T00:32:44;8.80;99.90
9448;DHT22;4762;48.128;11.376;2023-04-24T00:34:46;8.80;99.90
9448;DHT22;4762;48.128;11.376;2023-04-24T00:36:49;8.90;99.90
9448;DHT22;4762;48.128;11.376;2023-04-24T00:38:51;8.80;99.90
9448;DHT22;4762;48.128;11.376;2023-04-24T00:40:54;8.80;99.90
9448;DHT22;4762;48.128;11.376;2023-04-24T00:42:57;8.70;99.90
9448;DHT22;4762;48.128;11.376;2023-04-24T00:44:59;8.70;99.90
9448;DHT22;4762;48.128;11.376;2023-04-24T00:47:02;8.70;99.90
9448;DHT22;4762;48.128;11.376;2023-04-24T00:49:04;8.70;99.90
9448;DHT22;4762;48.128;11.376;2023-04-24T00:51:06;8.60;99.90
9448;DHT22;4762;48.128;11.376;2023-04-24T00:53:08;8.60;99.90
9448;DHT22;4762;48.128;11.376;2023-04-24T00:55:11;8.60;99.90
9448;DHT22;4762;48.128;11.376;2023-04-24T00:57:13;8.50;99.90
9448;DHT22;4762;48.128;11.376;2023-04-24T00:59:16;8.60;99.90
9448;DHT22;4762;48.128;11.376;2023-04-24T01:01:20;8.50;99.90
9448;DHT22;4762;48.128;11.376;2023-04-24T01:03:22;8.50;99.90
9448;DHT22;4762;48.128;11.376;2023-04-24T01:05:25;8.40;99.90
9448;DHT22;4762;48.128;11.376;2023-04-24T01:07:27;8.40;99.90
9448;DHT22;4762;48.128;11.376;2023-04-24T01:09:30;8.40;99.90
9448;DHT22;4762;48.128;11.376;2023-04-24T01:11:32;8.40;99.90
9448;DHT22;4762;48.128;11.376;2023-04-24T01:13:34;8.40;99.90
9448;DHT22;4762;48.128;11.376;2023-04-24T01:15:36;8.40;99.90
9448;DHT22;4762;48.128;11.376;2023-04-24T01:17:39;8.30;99.90
9448;DHT22;4762;48.128;11.376;2023-04-24T01:19:42;8.30;99.90
9448;DHT22;4762;48.128;11.376;2023-04-24T01:21:44;8.30;99.90
9448;DHT22;4762;48.128;11.376;2023-04-24T01:23:46;8.30;99.90
9448;DHT22;4762;48.128;11.376;2023-04-24T01:25:49;8.30;99.90
9448;DHT22;4762;48.128;11.376;2023-04-24T01:27:50;8.30;99.90
9448;DHT22;4762;48.128;11.376;2023-04-24T01:29:53;8.30;99.90
9448;DHT22;4762;48.128;11.376;2023-04-24T01:31:55;8.30;99.90
9448;DHT22;4762;48.128;11.376;2023-04-24T01:33:57;8.20;99.90
9448;DHT22;4762;48.128;11.376;2023-04-24T01:36:00;8.30;99.90
9448;DHT22;4762;48.128;11.376;2023-04-24T01:38:02;8.20;99.90
9448;DHT22;4762;48.128;11.376;2023-04-24T01:40:05;8.20;99.90
9448;DHT22;4762;48.128;11.376;2023-04-24T01:42:08;8.20;99.90
9448;DHT22;4762;48.128;11.376;2023-04-24T01:44:10;8.20;99.90
9448;DHT22;4762;48.128;11.376;2023-04-24T01:46:12;8.20;99.90
9448;DHT22;4762;48.128;11.376;2023-04-24T01:48:15;8.20;99.90
9448;DHT22;4762;48.128;11.376;2023-04-24T01:50:17;8.20;99.90
9448;DHT22;4762;48.128;11.376;2023-04-24T01:52:19;8.20;99.90
9448;DHT22;4762;48.128;11.376;2023-04-24T01:54:21;8.20;99.90
9448;DHT22;4762;48.128;11.376;2023-04-24T01:56:24;8.20;99.90
9448;DHT22;4762;48.128;11.376;2023-04-24T01:58:26;8.20;99.90
9448;DHT22;4762;48.128;11.376;2023-04-24T02:00:28;8.10;99.90
9448;DHT22;4762;48.128;11.376;2023-04-24T02:02:30;8.10;99.90
9448;DHT22;4762;48.128;11.376;2023-04-24T02:04:32;8.10;99.90
9448;DHT22;4762;48.128;11.376;2023-04-24T02:06:35;8.10;99.90
9448;DHT22;4762;48.128;11.376;2023-04-24T02:08:37;8.10;99.90
9448;DHT22;4762;48.128;11.376;2023-04-24T02:10:39;8.10;99.90
9448;DHT22;4762;48.128;11.376;2023-04-24T02:12:41;8.10;99.90
9448;DHT22;4762;48.128;11.376;2023-04-24T02:14:43;8.10;99.90
9448;DHT22;4762;48.128;11.376;2023-04-24T02:16:46;8.10;99.90
9448;DHT22;4762;48.128;11.376;2023-04-24T02:18:49;8.10;99.90
9448;DHT22;4762;48.128;11.376;2023-04-24T02:20:51;8.10;99.90
9448;DHT22;4762;48.128;11.376;2023-04-24T02:22:53;8.10;99.90
9448;DHT22;4762;48.128;11.376;2023-04-24T02:24:55;8.10;99.90
9448;DHT22;4762;48.128;11.376;2023-04-24T02:26:57;8.10;99.90
9448;DHT22;4762;48.128;11.376;2023-04-24T02:29:00;8.10;99.90
9448;DHT22;4762;48.128;11.376;2023-04-24T02:31:02;8.10;99.90
9448;DHT22;4762;48.128;11.376;2023-04-24T02:33:04;8.20;99.90
9448;DHT22;4762;48.128;11.376;2023-04-24T02:35:07;8.10;99.90
9448;DHT22;4762;48.128;11.376;2023-04-24T02:37:09;8.10;99.90
9448;DHT22;4762;48.128;11.376;2023-04-24T02:39:11;8.10;99.90
9448;DHT22;4762;48.128;11.376;2023-04-24T02:41:13;8.10;99.90
9448;DHT22;4762;48.128;11.376;2023-04-24T02:43:16;8.20;99.90
9448;DHT22;4762;48.128;11.376;2023-04-24T02:45:18;8.10;99.90
9448;DHT22;4762;48.128;11.376;2023-04-24T02:47:21;8.10;99.90
9448;DHT22;4762;48.128;11.376;2023-04-24T02:49:23;8.20;99.90
9448;DHT22;4762;48.128;11.376;2023-04-24T02:51:25;8.10;99.90
9448;DHT22;4762;48.128;11.376;2023-04-24T02:53:28;8.20;99.90
9448;DHT22;4762;48.128;11.376;2023-04-24T02:55:30;8.20;99.90
9448;DHT22;4762;48.128;11.376;2023-04-24T02:57:32;8.10;99.90
9448;DHT22;4762;48.128;11.376;2023-04-24T02:59:34;8.10;99.90
9448;DHT22;4762;48.128;11.376;2023-04-24T03:01:37;8.10;99.90
9448;DHT22;4762;48.128;11.376;2023-04-24T03:03:39;8.10;99.90
9448;DHT22;4762;48.128;11.376;2023-04-24T03:05:42;8.10;99.90
9448;DHT22;4762;48.128;11.376;2023-04-24T03:07:44;8.10;99.90
9448;DHT22;4762;48.128;11.376;2023-04-24T03:09:46;8.10;99.90
9448;DHT22;4762;48.128;11.376;2023-04-24T03:11:49;8.00;99.90
9448;DHT22;4762;48.128;11.376;2023-04-24T03:13:51;8.10;99.90
9448;DHT22;4762;48.128;11.376;2023-04-24T03:15:54;8.10;99.90
9448;DHT22;4762;48.128;11.376;2023-04-24T03:17:56;8.10;99.90
9448;DHT22;4762;48.128;11.376;2023-04-24T03:19:58;8.10;99.90
9448;DHT22;4762;48.128;11.376;2023-04-24T03:22:02;8.10;99.90
9448;DHT22;4762;48.128;11.376;2023-04-24T03:24:03;8.10;99.90
9448;DHT22;4762;48.128;11.376;2023-04-24T03:26:06;8.10;99.90
9448;DHT22;4762;48.128;11.376;2023-04-24T03:28:08;8.10;99.90
9448;DHT22;4762;48.128;11.376;2023-04-24T03:30:10;8.10;99.90
9448;DHT22;4762;48.128;11.376;2023-04-24T03:32:12;8.10;99.90
9448;DHT22;4762;48.128;11.376;2023-04-24T03:34:15;8.20;99.90
9448;DHT22;4762;48.128;11.376;2023-04-24T03:36:17;8.10;99.90
9448;DHT22;4762;48.128;11.376;2023-04-24T03:38:19;8.10;99.90
9448;DHT22;4762;48.128;11.376;2023-04-24T03:40:21;8.10;99.90
9448;DHT22;4762;48.128;11.376;2023-04-24T03:42:23;8.10;99.90
9448;DHT22;4762;48.128;11.376;2023-04-24T03:44:26;8.20;99.90
9448;DHT22;4762;48.128;11.376;2023-04-24T03:46:28;8.10;99.90
9448;DHT22;4762;48.128;11.376;2023-04-24T03:48:31;8.20;99.90
9448;DHT22;4762;48.128;11.376;2023-04-24T03:50:33;8.20;99.90
9448;DHT22;4762;48.128;11.376;2023-04-24T03:52:35;8.10;99.90
9448;DHT22;4762;48.128;11.376;2023-04-24T03:54:37;8.20;99.90
9448;DHT22;4762;48.128;11.376;2023-04-24T03:56:39;8.20;99.90
9448;DHT22;4762;48.128;11.376;2023-04-24T03:58:42;8.20;99.90
9448;DHT22;4762;48.128;11.376;2023-04-24T04:00:44;8.20;99.90
9448;DHT22;4762;48.128;11.376;2023-04-24T04:02:47;8.20;99.90
9448;DHT22;4762;48.128;11.376;2023-04-24T04:04:49;8.20;99.90
9448;DHT22;4762;48.128;11.376;2023-04-24T04:06:51;8.10;99.90
9448;DHT22;4762;48.128;11.376;2023-04-24T04:08:53;8.20;99.90
9448;DHT22;4762;48.128;11.376;2023-04-24T04:10:56;8.20;99.90
9448;DHT22;4762;48.128;11.376;2023-04-24T04:12:58;8.10;99.90
9448;DHT22;4762;48.128;11.376;2023-04-24T04:15:00;8.10;99.90
9448;DHT22;4762;48.128;11.376;2023-04-24T04:17:02;8.10;99.90
9448;DHT22;4762;48.128;11.376;2023-04-24T04:19:05;8.10;99.90
9448;DHT22;4762;48.128;11.376;2023-04-24T04:21:07;8.10;99.90
9448;DHT22;4762;48.128;11.376;2023-04-24T04:23:09;8.10;99.90
9448;DHT22;4762;48.128;11.376;2023-04-24T04:25:11;8.10;99.90
9448;DHT22;4762;48.128;11.376;2023-04-24T04:27:14;8.10;99.90
9448;DHT22;4762;48.128;11.376;2023-04-24T04:29:17;8.00;99.90
9448;DHT22;4762;48.128;11.376;2023-04-24T04:31:19;8.00;99.90
9448;DHT22;4762;48.128;11.376;2023-04-24T04:33:21;8.00;99.90
9448;DHT22;4762;48.128;11.376;2023-04-24T04:35:23;8.00;99.90
9448;DHT22;4762;48.128;11.376;2023-04-24T04:37:25;8.00;99.90
9448;DHT22;4762;48.128;11.376;2023-04-24T04:39:28;8.10;99.90
9448;DHT22;4762;48.128;11.376;2023-04-24T04:41:30;8.10;99.90
9448;DHT22;4762;48.128;11.376;2023-04-24T04:43:33;8.10;99.90
9448;DHT22;4762;48.128;11.376;2023-04-24T04:45:35;8.10;99.90
9448;DHT22;4762;48.128;11.376;2023-04-24T04:47:37;7.90;99.90
9448;DHT22;4762;48.128;11.376;2023-04-24T04:49:39;8.10;99.90
9448;DHT22;4762;48.128;11.376;2023-04-24T04:51:42;8.10;99.90
9448;DHT22;4762;48.128;11.376;2023-04-24T04:53:45;8.10;99.90
9448;DHT22;4762;48.128;11.376;2023-04-24T04:55:47;8.00;99.90
9448;DHT22;4762;48.128;11.376;2023-04-24T04:57:49;8.10;99.90
9448;DHT22;4762;48.128;11.376;2023-04-24T04:59:51;8.00;99.90
9448;DHT22;4762;48.128;11.376;2023-04-24T05:01:53;8.00;99.90
9448;DHT22;4762;48.128;11.376;2023-04-24T05:03:56;8.00;99.90
9448;DHT22;4762;48.128;11.376;2023-04-24T05:05:58;8.10;99.90
9448;DHT22;4762;48.128;11.376;2023-04-24T05:08:02;8.10;99.90
9448;DHT22;4762;48.128;11.376;2023-04-24T05:10:04;8.10;99.90
9448;DHT22;4762;48.128;11.376;2023-04-24T05:12:07;8.10;99.90
9448;DHT22;4762;48.128;11.376;2023-04-24T05:14:09;8.20;99.90
9448;DHT22;4762;48.128;11.376;2023-04-24T05:16:11;8.30;99.90
9448;DHT22;4762;48.128;11.376;2023-04-24T05:18:13;8.30;99.90
9448;DHT22;4762;48.128;11.376;2023-04-24T05:20:16;8.40;99.90
9448;DHT22;4762;48.128;11.376;2023-04-24T05:22:18;8.30;99.90
9448;DHT22;4762;48.128;11.376;2023-04-24T05:24:20;8.40;99.90
9448;DHT22;4762;48.128;11.376;2023-04-24T05:26:23;8.30;99.90
9448;DHT22;4762;48.128;11.376;2023-04-24T05:28:26;8.40;99.90
9448;DHT22;4762;48.128;11.376;2023-04-24T05:30:29;8.40;99.90
9448;DHT22;4762;48.128;11.376;2023-04-24T05:32:31;8.40;99.90
9448;DHT22;4762;48.128;11.376;2023-04-24T05:34:33;8.40;99.90
9448;DHT22;4762;48.128;11.376;2023-04-24T05:36:36;8.40;99.90
9448;DHT22;4762;48.128;11.376;2023-04-24T05:38:38;8.40;99.90
9448;DHT22;4762;48.128;11.376;2023-04-24T05:40:40;8.40;99.90
9448;DHT22;4762;48.128;11.376;2023-04-24T05:42:42;8.40;99.90
9448;DHT22;4762;48.128;11.376;2023-04-24T05:44:44;8.50;99.90
9448;DHT22;4762;48.128;11.376;2023-04-24T05:46:47;8.50;99.90
9448;DHT22;4762;48.128;11.376;2023-04-24T05:48:49;8.60;99.90
9448;DHT22;4762;48.128;11.376;2023-04-24T05:50:51;8.70;99.90
9448;DHT22;4762;48.128;11.376;2023-04-24T05:52:54;8.80;99.90
9448;DHT22;4762;48.128;11.376;2023-04-24T05:54:56;8.80;99.90
9448;DHT22;4762;48.128;11.376;2023-04-24T05:56:58;8.90;99.90
9448;DHT22;4762;48.128;11.376;2023-04-24T05:59:00;9.10;99.90
9448;DHT22;4762;48.128;11.376;2023-04-24T06:01:02;9.10;99.90
9448;DHT22;4762;48.128;11.376;2023-04-24T06:03:05;9.20;99.90
9448;DHT22;4762;48.128;11.376;2023-04-24T06:05:07;9.20;99.90
9448;DHT22;4762;48.128;11.376;2023-04-24T06:07:10;9.00;99.90
9448;DHT22;4762;48.128;11.376;2023-04-24T06:09:12;9.20;99.90
9448;DHT22;4762;48.128;11.376;2023-04-24T06:11:14;9.10;99.90
9448;DHT22;4762;48.128;11.376;2023-04-24T06:13:16;9.20;99.90
9448;DHT22;4762;48.128;11.376;2023-04-24T06:15:18;9.30;99.90
9448;DHT22;4762;48.128;11.376;2023-04-24T06:17:20;9.30;99.90
9448;DHT22;4762;48.128;11.376;2023-04-24T06:19:23;9.30;99.90
9448;DHT22;4762;48.128;11.376;2023-04-24T06:21:25;9.30;99.90
9448;DHT22;4762;48.128;11.376;2023-04-24T06:23:27;9.20;99.90
9448;DHT22;4762;48.128;11.376;2023-04-24T06:25:29;9.30;99.90
9448;DHT22;4762;48.128;11.376;2023-04-24T06:27:32;9.30;99.90
9448;DHT22;4762;48.128;11.376;2023-04-24T06:29:35;9.30;99.90
9448;DHT22;4762;48.128;11.376;2023-04-24T06:31:36;9.30;99.90
9448;DHT22;4762;48.128;11.376;2023-04-24T06:33:38;9.40;99.90
9448;DHT22;4762;48.128;11.376;2023-04-24T06:35:41;9.40;99.90
9448;DHT22;4762;48.128;11.376;2023-04-24T06:37:43;9.50;99.90
9448;DHT22;4762;48.128;11.376;2023-04-24T06:39:45;9.50;99.90
9448;DHT22;4762;48.128;11.376;2023-04-24T06:41:49;9.60;99.90
9448;DHT22;4762;48.128;11.376;2023-04-24T06:43:51;9.70;99.90
9448;DHT22;4762;48.128;11.376;2023-04-24T06:45:53;9.70;99.90
9448;DHT22;4762;48.128;11.376;2023-04-24T06:47:55;9.90;99.90
9448;DHT22;4762;48.128;11.376;2023-04-24T06:49:57;10.00;99.90
9448;DHT22;4762;48.128;11.376;2023-04-24T06:52:00;9.90;99.90
9448;DHT22;4762;48.128;11.376;2023-04-24T06:54:02;9.80;99.90
9448;DHT22;4762;48.128;11.376;2023-04-24T06:56:05;9.90;99.90
9448;DHT22;4762;48.128;11.376;2023-04-24T06:58:07;10.10;99.90
9448;DHT22;4762;48.128;11.376;2023-04-24T07:00:10;10.40;99.90
9448;DHT22;4762;48.128;11.376;2023-04-24T07:02:13;10.40;99.90
9448;DHT22;4762;48.128;11.376;2023-04-24T07:04:15;10.50;99.90
9448;DHT22;4762;48.128;11.376;2023-04-24T07:06:17;10.50;99.90
9448;DHT22;4762;48.128;11.376;2023-04-24T07:08:20;10.40;99.90
9448;DHT22;4762;48.128;11.376;2023-04-24T07:10:22;10.40;99.90
9448;DHT22;4762;48.128;11.376;2023-04-24T07:12:24;10.30;99.90
9448;DHT22;4762;48.128;11.376;2023-04-24T07:14:26;10.10;99.90
9448;DHT22;4762;48.128;11.376;2023-04-24T07:16:29;10.20;99.90
9448;DHT22;4762;48.128;11.376;2023-04-24T07:18:32;10.10;99.90
9448;DHT22;4762;48.128;11.376;2023-04-24T07:20:34;10.10;99.90
9448;DHT22;4762;48.128;11.376;2023-04-24T07:22:37;10.10;99.90
9448;DHT22;4762;48.128;11.376;2023-04-24T07:24:38;10.00;99.90
9448;DHT22;4762;48.128;11.376;2023-04-24T07:26:40;10.00;99.90
9448;DHT22;4762;48.128;11.376;2023-04-24T07:28:43;10.00;99.90
9448;DHT22;4762;48.128;11.376;2023-04-24T07:30:45;10.00;99.90
9448;DHT22;4762;48.128;11.376;2023-04-24T07:32:47;10.10;99.90
9448;DHT22;4762;48.128;11.376;2023-04-24T07:34:49;10.30;99.90
9448;DHT22;4762;48.128;11.376;2023-04-24T07:36:52;10.20;99.90
9448;DHT22;4762;48.128;11.376;2023-04-24T07:38:54;10.10;99.90
9448;DHT22;4762;48.128;11.376;2023-04-24T07:40:56;10.10;99.90
9448;DHT22;4762;48.128;11.376;2023-04-24T07:42:58;10.20;99.90
9448;DHT22;4762;48.128;11.376;2023-04-24T07:45:00;10.20;99.90
9448;DHT22;4762;48.128;11.376;2023-04-24T07:47:03;10.10;99.90
9448;DHT22;4762;48.128;11.376;2023-04-24T07:49:05;10.20;99.90
9448;DHT22;4762;48.128;11.376;2023-04-24T07:51:08;10.30;99.90
9448;DHT22;4762;48.128;11.376;2023-04-24T07:53:10;10.40;99.90
9448;DHT22;4762;48.128;11.376;2023-04-24T07:55:12;10.60;99.90
9448;DHT22;4762;48.128;11.376;2023-04-24T07:57:14;10.60;99.90
9448;DHT22;4762;48.128;11.376;2023-04-24T07:59:17;10.80;99.90
9448;DHT22;4762;48.128;11.376;2023-04-24T08:01:19;11.10;99.90
9448;DHT22;4762;48.128;11.376;2023-04-24T08:03:21;11.50;99.90
9448;DHT22;4762;48.128;11.376;2023-04-24T08:05:23;11.60;99.90
9448;DHT22;4762;48.128;11.376;2023-04-24T08:07:26;11.60;99.90
9448;DHT22;4762;48.128;11.376;2023-04-24T08:09:28;11.20;99.90
9448;DHT22;4762;48.128;11.376;2023-04-24T08:11:30;11.10;99.90
9448;DHT22;4762;48.128;11.376;2023-04-24T08:13:32;10.90;99.90
9448;DHT22;4762;48.128;11.376;2023-04-24T08:15:35;10.80;99.90
9448;DHT22;4762;48.128;11.376;2023-04-24T08:17:37;10.70;99.90
9448;DHT22;4762;48.128;11.376;2023-04-24T08:19:40;10.60;99.90
9448;DHT22;4762;48.128;11.376;2023-04-24T08:21:44;10.40;99.90
9448;DHT22;4762;48.128;11.376;2023-04-24T08:23:47;10.10;99.90
9448;DHT22;4762;48.128;11.376;2023-04-24T08:25:49;9.80;99.90
9448;DHT22;4762;48.128;11.376;2023-04-24T08:27:51;9.60;99.90
9448;DHT22;4762;48.128;11.376;2023-04-24T08:29:54;9.50;99.90
9448;DHT22;4762;48.128;11.376;2023-04-24T08:31:56;9.60;99.90
9448;DHT22;4762;48.128;11.376;2023-04-24T08:33:58;9.60;99.90
9448;DHT22;4762;48.128;11.376;2023-04-24T08:36:02;9.60;99.90
9448;DHT22;4762;48.128;11.376;2023-04-24T08:38:04;9.70;99.90
9448;DHT22;4762;48.128;11.376;2023-04-24T08:40:12;9.70;99.90
9448;DHT22;4762;48.128;11.376;2023-04-24T08:42:12;9.70;99.90
9448;DHT22;4762;48.128;11.376;2023-04-24T08:44:14;9.90;99.90
9448;DHT22;4762;48.128;11.376;2023-04-24T08:46:17;9.90;99.90
9448;DHT22;4762;48.128;11.376;2023-04-24T08:48:20;9.80;99.90
9448;DHT22;4762;48.128;11.376;2023-04-24T08:50:22;9.80;99.90
9448;DHT22;4762;48.128;11.376;2023-04-24T08:52:25;9.80;99.90
9448;DHT22;4762;48.128;11.376;2023-04-24T08:54:27;9.90;99.90
9448;DHT22;4762;48.128;11.376;2023-04-24T08:56:29;10.40;99.90
9448;DHT22;4762;48.128;11.376;2023-04-24T08:58:32;10.30;99.90
9448;DHT22;4762;48.128;11.376;2023-04-24T09:00:34;10.20;99.90
9448;DHT22;4762;48.128;11.376;2023-04-24T09:02:36;10.30;99.90
9448;DHT22;4762;48.128;11.376;2023-04-24T09:04:39;10.30;99.90
9448;DHT22;4762;48.128;11.376;2023-04-24T09:06:41;10.30;99.90
9448;DHT22;4762;48.128;11.376;2023-04-24T09:08:43;10.20;99.90
9448;DHT22;4762;48.128;11.376;2023-04-24T09:10:46;10.20;99.90
9448;DHT22;4762;48.128;11.376;2023-04-24T09:12:49;10.40;99.90
9448;DHT22;4762;48.128;11.376;2023-04-24T09:14:51;10.40;99.90
9448;DHT22;4762;48.128;11.376;2023-04-24T09:16:53;10.40;99.90
9448;DHT22;4762;48.128;11.376;2023-04-24T09:18:55;10.50;99.90
9448;DHT22;4762;48.128;11.376;2023-04-24T09:21:03;10.50;99.90
9448;DHT22;4762;48.128;11.376;2023-04-24T09:23:05;10.50;99.90
9448;DHT22;4762;48.128;11.376;2023-04-24T09:25:08;10.90;99.90
9448;DHT22;4762;48.128;11.376;2023-04-24T09:27:11;10.90;99.90
9448;DHT22;4762;48.128;11.376;2023-04-24T09:29:15;10.90;99.90
9448;DHT22;4762;48.128;11.376;2023-04-24T09:31:18;11.10;99.90
9448;DHT22;4762;48.128;11.376;2023-04-24T09:33:21;10.90;99.90
9448;DHT22;4762;48.128;11.376;2023-04-24T09:35:23;11.20;99.90
9448;DHT22;4762;48.128;11.376;2023-04-24T09:37:28;11.60;99.90
9448;DHT22;4762;48.128;11.376;2023-04-24T09:39:30;11.90;99.90
9448;DHT22;4762;48.128;11.376;2023-04-24T09:41:33;12.40;99.90
9448;DHT22;4762;48.128;11.376;2023-04-24T09:43:35;12.20;99.90
9448;DHT22;4762;48.128;11.376;2023-04-24T09:45:38;12.20;99.90
9448;DHT22;4762;48.128;11.376;2023-04-24T09:47:40;12.30;99.90
9448;DHT22;4762;48.128;11.376;2023-04-24T09:49:42;12.80;99.90
9448;DHT22;4762;48.128;11.376;2023-04-24T09:51:44;13.00;99.90
9448;DHT22;4762;48.128;11.376;2023-04-24T09:53:47;12.80;97.30
9448;DHT22;4762;48.128;11.376;2023-04-24T09:55:49;12.50;99.90
9448;DHT22;4762;48.128;11.376;2023-04-24T09:57:54;12.90;99.90
9448;DHT22;4762;48.128;11.376;2023-04-24T09:59:54;13.20;99.90
9448;DHT22;4762;48.128;11.376;2023-04-24T10:01:56;13.20;99.90
9448;DHT22;4762;48.128;11.376;2023-04-24T10:03:58;13.00;96.10
9448;DHT22;4762;48.128;11.376;2023-04-24T10:06:02;12.60;99.90
9448;DHT22;4762;48.128;11.376;2023-04-24T10:08:08;12.70;99.90
9448;DHT22;4762;48.128;11.376;2023-04-24T10:10:14;12.80;95.30
9448;DHT22;4762;48.128;11.376;2023-04-24T10:12:16;12.70;99.90
9448;DHT22;4762;48.128;11.376;2023-04-24T10:14:19;13.00;99.90
9448;DHT22;4762;48.128;11.376;2023-04-24T10:16:21;12.90;98.10
9448;DHT22;4762;48.128;11.376;2023-04-24T10:18:22;12.80;99.30
9448;DHT22;4762;48.128;11.376;2023-04-24T10:20:26;13.20;99.60
9448;DHT22;4762;48.128;11.376;2023-04-24T10:22:27;13.20;94.40
9448;DHT22;4762;48.128;11.376;2023-04-24T10:24:30;13.10;98.00
9448;DHT22;4762;48.128;11.376;2023-04-24T10:26:33;12.90;97.10
9448;DHT22;4762;48.128;11.376;2023-04-24T10:28:36;12.50;96.10
9448;DHT22;4762;48.128;11.376;2023-04-24T10:30:39;12.00;99.90
9448;DHT22;4762;48.128;11.376;2023-04-24T10:32:41;11.70;99.90
9448;DHT22;4762;48.128;11.376;2023-04-24T10:34:43;11.60;99.90
9448;DHT22;4762;48.128;11.376;2023-04-24T10:36:47;11.50;99.90
9448;DHT22;4762;48.128;11.376;2023-04-24T10:38:48;11.30;99.90
9448;DHT22;4762;48.128;11.376;2023-04-24T10:40:50;10.10;99.90
9448;DHT22;4762;48.128;11.376;2023-04-24T10:42:53;9.40;99.90
9448;DHT22;4762;48.128;11.376;2023-04-24T10:44:55;9.10;99.90
9448;DHT22;4762;48.128;11.376;2023-04-24T10:46:57;9.10;99.90
9448;DHT22;4762;48.128;11.376;2023-04-24T10:49:02;9.10;99.90
9448;DHT22;4762;48.128;11.376;2023-04-24T10:51:02;9.20;99.90
9448;DHT22;4762;48.128;11.376;2023-04-24T10:53:06;9.40;99.90
9448;DHT22;4762;48.128;11.376;2023-04-24T10:55:08;9.50;99.90
9448;DHT22;4762;48.128;11.376;2023-04-24T10:59:34;9.90;99.90
9448;DHT22;4762;48.128;11.376;2023-04-24T11:01:37;10.80;99.90
9448;DHT22;4762;48.128;11.376;2023-04-24T11:03:39;11.00;99.90
9448;DHT22;4762;48.128;11.376;2023-04-24T11:05:58;11.30;99.90
9448;DHT22;4762;48.128;11.376;2023-04-24T11:08:12;12.00;99.90
9448;DHT22;4762;48.128;11.376;2023-04-24T11:10:25;12.80;99.90
9448;DHT22;4762;48.128;11.376;2023-04-24T11:12:16;13.10;99.90
9448;DHT22;4762;48.128;11.376;2023-04-24T11:14:19;13.20;99.90
9448;DHT22;4762;48.128;11.376;2023-04-24T11:16:31;13.00;99.90
9448;DHT22;4762;48.128;11.376;2023-04-24T11:18:38;13.40;99.90
9448;DHT22;4762;48.128;11.376;2023-04-24T11:20:42;13.70;99.90
9448;DHT22;4762;48.128;11.376;2023-04-24T11:22:44;13.90;99.90
9448;DHT22;4762;48.128;11.376;2023-04-24T11:24:50;14.10;99.90
9448;DHT22;4762;48.128;11.376;2023-04-24T11:27:13;14.10;99.90
9448;DHT22;4762;48.128;11.376;2023-04-24T11:29:14;13.50;99.90
9448;DHT22;4762;48.128;11.376;2023-04-24T11:31:33;13.90;99.90
9448;DHT22;4762;48.128;11.376;2023-04-24T11:33:24;13.80;99.90
9448;DHT22;4762;48.128;11.376;2023-04-24T11:35:26;13.40;99.90
9448;DHT22;4762;48.128;11.376;2023-04-24T11:37:38;13.10;99.90
9448;DHT22;4762;48.128;11.376;2023-04-24T11:39:40;13.00;99.90
9448;DHT22;4762;48.128;11.376;2023-04-24T11:41:42;12.80;99.90
9448;DHT22;4762;48.128;11.376;2023-04-24T11:43:44;13.20;99.90
9448;DHT22;4762;48.128;11.376;2023-04-24T11:45:48;13.30;99.90
9448;DHT22;4762;48.128;11.376;2023-04-24T11:47:50;12.80;99.90
9448;DHT22;4762;48.128;11.376;2023-04-24T11:49:52;13.60;99.90
9448;DHT22;4762;48.128;11.376;2023-04-24T11:51:55;14.30;99.90
9448;DHT22;4762;48.128;11.376;2023-04-24T11:53:57;14.50;99.90
9448;DHT22;4762;48.128;11.376;2023-04-24T11:56:02;14.50;99.40
9448;DHT22;4762;48.128;11.376;2023-04-24T11:58:01;15.00;92.10
9448;DHT22;4762;48.128;11.376;2023-04-24T12:00:04;14.90;90.20
9448;DHT22;4762;48.128;11.376;2023-04-24T12:02:06;14.10;90.10
9448;DHT22;4762;48.128;11.376;2023-04-24T12:04:09;13.80;88.00
9448;DHT22;4762;48.128;11.376;2023-04-24T12:06:11;14.00;90.80
9448;DHT22;4762;48.128;11.376;2023-04-24T12:08:26;14.10;93.10
9448;DHT22;4762;48.128;11.376;2023-04-24T12:10:20;14.40;82.30
9448;DHT22;4762;48.128;11.376;2023-04-24T12:12:23;14.60;80.10
9448;DHT22;4762;48.128;11.376;2023-04-24T12:14:25;14.40;87.90
9448;DHT22;4762;48.128;11.376;2023-04-24T12:16:27;14.10;85.10
9448;DHT22;4762;48.128;11.376;2023-04-24T12:18:29;14.70;99.90
9448;DHT22;4762;48.128;11.376;2023-04-24T12:20:32;15.00;76.00
9448;DHT22;4762;48.128;11.376;2023-04-24T12:22:58;15.50;94.70
9448;DHT22;4762;48.128;11.376;2023-04-24T12:25:01;15.70;71.60
9448;DHT22;4762;48.128;11.376;2023-04-24T12:27:02;15.40;71.20
9448;DHT22;4762;48.128;11.376;2023-04-24T12:29:05;15.20;65.30
9448;DHT22;4762;48.128;11.376;2023-04-24T12:31:07;15.00;64.00
9448;DHT22;4762;48.128;11.376;2023-04-24T12:33:09;15.40;60.90
9448;DHT22;4762;48.128;11.376;2023-04-24T12:35:11;15.00;61.20
9448;DHT22;4762;48.128;11.376;2023-04-24T12:37:14;14.70;60.00
9448;DHT22;4762;48.128;11.376;2023-04-24T12:39:17;14.60;61.70
9448;DHT22;4762;48.128;11.376;2023-04-24T12:41:19;14.50;63.40
9448;DHT22;4762;48.128;11.376;2023-04-24T12:43:21;14.40;60.70
9448;DHT22;4762;48.128;11.376;2023-04-24T12:45:23;15.10;63.70
9448;DHT22;4762;48.128;11.376;2023-04-24T12:47:26;15.70;57.10
9448;DHT22;4762;48.128;11.376;2023-04-24T12:49:29;14.70;56.20
9448;DHT22;4762;48.128;11.376;2023-04-24T12:51:30;14.40;62.10
9448;DHT22;4762;48.128;11.376;2023-04-24T12:53:32;15.10;59.70
9448;DHT22;4762;48.128;11.376;2023-04-24T12:55:35;15.30;56.90
9448;DHT22;4762;48.128;11.376;2023-04-24T12:57:38;15.40;56.20
9448;DHT22;4762;48.128;11.376;2023-04-24T12:59:39;15.40;55.40
9448;DHT22;4762;48.128;11.376;2023-04-24T13:01:41;15.20;57.10
9448;DHT22;4762;48.128;11.376;2023-04-24T13:03:43;15.20;56.60
9448;DHT22;4762;48.128;11.376;2023-04-24T13:05:45;14.90;57.30
9448;DHT22;4762;48.128;11.376;2023-04-24T13:07:48;14.70;61.50
9448;DHT22;4762;48.128;11.376;2023-04-24T13:09:50;14.40;62.10
9448;DHT22;4762;48.128;11.376;2023-04-24T13:11:52;14.10;61.80
9448;DHT22;4762;48.128;11.376;2023-04-24T13:13:54;13.80;62.50
9448;DHT22;4762;48.128;11.376;2023-04-24T13:15:57;13.80;71.10